createdAt,value
2022-12-03T00:00:42.504Z,28.42
2022-12-03T00:03:10.500Z,24.40
2022-12-03T00:05:37.512Z,26.33
2022-12-03T00:08:04.577Z,24.63
2022-12-03T00:10:31.658Z,27.38
2022-12-03T00:12:58.496Z,28.40
2022-12-03T00:15:25.367Z,27.63
2022-12-03T00:17:52.227Z,25.52
2022-12-03T00:20:22.425Z,26.17
2022-12-03T00:22:50.129Z,24.88
2022-12-03T00:25:17.375Z,24.10
2022-12-03T00:27:44.320Z,26.63
2022-12-03T00:30:12.149Z,21.70
2022-12-03T00:32:39.021Z,23.52
2022-12-03T00:35:06.397Z,25.67
2022-12-03T00:37:35.144Z,23.60
2022-12-03T00:40:03.641Z,23.13
2022-12-03T00:42:30.533Z,21.02
2022-12-03T00:44:57.596Z,23.23
2022-12-03T00:47:24.425Z,24.38
2022-12-03T00:49:52.162Z,21.30
2022-12-03T00:52:19.247Z,22.40
2022-12-03T00:54:46.114Z,21.58
2022-12-03T00:57:12.935Z,23.95
2022-12-03T00:59:41.337Z,21.38
2022-12-03T01:02:08.305Z,22.70
2022-12-03T01:04:35.379Z,19.83
2022-12-03T01:07:02.193Z,19.33
2022-12-03T01:09:29.093Z,24.05
2022-12-03T01:11:56.411Z,23.05
2022-12-03T01:14:23.404Z,20.33
2022-12-03T01:16:50.429Z,21.13
2022-12-03T01:19:17.797Z,20.70
2022-12-03T01:21:47.365Z,22.48
2022-12-03T01:24:14.730Z,19.35
2022-12-03T01:26:41.797Z,19.73
2022-12-03T01:29:08.623Z,19.80
2022-12-03T01:31:54.301Z,21.17
2022-12-03T01:34:21.162Z,21.50
2022-12-03T01:36:48.026Z,19.67
2022-12-03T01:39:14.859Z,19.30
2022-12-03T01:41:42.057Z,20.08
2022-12-03T01:44:18.054Z,19.30
2022-12-03T01:46:46.298Z,20.17
2022-12-03T01:49:18.558Z,19.02
2022-12-03T01:51:46.526Z,21.02
2022-12-03T01:54:18.238Z,20.02
2022-12-03T01:56:45.706Z,20.05
2022-12-03T01:59:16.369Z,19.73
2022-12-03T02:01:43.790Z,17.83
2022-12-03T02:04:16.920Z,19.67
2022-12-03T02:06:44.762Z,18.73
2022-12-03T02:09:12.566Z,18.10
2022-12-03T02:11:43.573Z,20.02
2022-12-03T02:14:15.874Z,18.48
2022-12-03T02:16:44.811Z,18.83
2022-12-03T02:19:29.843Z,20.60
2022-12-03T02:22:10.196Z,20.65
2022-12-03T02:24:55.664Z,19.58
2022-12-03T02:27:23.335Z,18.80
2022-12-03T02:29:50.661Z,18.75
2022-12-03T02:32:17.743Z,19.25
2022-12-03T02:34:45.963Z,17.88
2022-12-03T02:37:17.486Z,21.35
2022-12-03T02:39:48.379Z,17.42
2022-12-03T02:42:33.728Z,18.85
2022-12-03T02:45:16.472Z,18.30
2022-12-03T02:47:51.291Z,18.85
2022-12-03T02:50:22.950Z,18.45
2022-12-03T02:52:51.059Z,19.10
2022-12-03T02:55:18.794Z,18.30
2022-12-03T02:57:48.263Z,18.77
2022-12-03T03:00:17.057Z,19.42
2022-12-03T03:02:46.710Z,18.88
2022-12-03T03:05:16.230Z,20.17
2022-12-03T03:07:43.202Z,18.27
2022-12-03T03:10:14.473Z,18.95
2022-12-03T03:12:41.675Z,18.42
2022-12-03T03:15:11.577Z,19.80
2022-12-03T03:17:39.389Z,17.77
2022-12-03T03:20:08.145Z,19.67
2022-12-03T03:22:38.883Z,20.50
2022-12-03T03:25:09.134Z,17.55
2022-12-03T03:27:36.626Z,18.80
2022-12-03T03:30:04.569Z,19.77
2022-12-03T03:32:31.541Z,18.13
2022-12-03T03:34:58.631Z,19.67
2022-12-03T03:37:25.883Z,18.65
2022-12-03T03:39:52.746Z,17.35
2022-12-03T03:42:19.601Z,20.00
2022-12-03T03:44:48.092Z,19.27
2022-12-03T03:47:15.806Z,19.02
2022-12-03T03:49:42.932Z,21.20
2022-12-03T03:52:11.745Z,18.95
2022-12-03T03:54:39.199Z,18.17
2022-12-03T03:57:06.449Z,20.48
2022-12-03T03:59:33.447Z,21.20
2022-12-03T04:02:00.374Z,19.85
2022-12-03T04:04:29.719Z,19.58
2022-12-03T04:06:56.620Z,18.45
2022-12-03T04:09:24.593Z,18.67
2022-12-03T04:12:09.802Z,19.27
2022-12-03T04:14:36.617Z,19.17
2022-12-03T04:17:03.512Z,18.25
2022-12-03T04:19:30.383Z,18.30
2022-12-03T04:22:16.298Z,18.77
2022-12-03T04:24:43.506Z,19.83
2022-12-03T04:27:28.734Z,19.08
2022-12-03T04:29:55.549Z,18.25
2022-12-03T04:32:40.847Z,19.55
2022-12-03T04:35:27.803Z,18.88
2022-12-03T04:37:54.774Z,22.25
2022-12-03T04:40:39.918Z,20.00
2022-12-03T04:43:06.769Z,17.35
2022-12-03T04:45:33.661Z,20.42
2022-12-03T04:48:00.573Z,22.33
2022-12-03T04:50:27.431Z,19.83
2022-12-03T04:52:54.272Z,21.65
2022-12-03T04:55:21.073Z,18.23
2022-12-03T04:57:47.913Z,17.52
2022-12-03T05:00:15.324Z,20.02
2022-12-03T05:02:42.251Z,21.55
2022-12-03T05:05:10.956Z,21.77
2022-12-03T05:07:37.983Z,19.50
2022-12-03T05:10:06.159Z,17.20
2022-12-03T05:12:33.093Z,21.40
2022-12-03T05:14:59.942Z,20.65
2022-12-03T05:17:26.808Z,19.20
2022-12-03T05:20:12.232Z,20.15
2022-12-03T05:22:39.082Z,18.30
2022-12-03T05:25:06.840Z,20.15
2022-12-03T05:27:33.652Z,19.02
2022-12-03T05:30:00.696Z,17.27
2022-12-03T05:32:27.548Z,16.38
2022-12-03T05:34:54.511Z,18.08
2022-12-03T05:37:21.471Z,18.40
2022-12-03T05:39:48.318Z,19.45
2022-12-03T05:42:33.604Z,19.20
2022-12-03T05:45:00.418Z,20.20
2022-12-03T05:47:27.273Z,18.63
2022-12-03T05:49:54.102Z,18.13
2022-12-03T05:52:20.886Z,20.63
2022-12-03T05:54:47.787Z,20.30
2022-12-03T05:57:14.744Z,17.83
2022-12-03T05:59:41.552Z,23.95
2022-12-03T06:02:08.406Z,18.23
2022-12-03T06:04:35.328Z,16.42
2022-12-03T06:07:02.219Z,18.25
2022-12-03T06:09:29.097Z,21.85
2022-12-03T06:11:56.486Z,19.33
2022-12-03T06:14:23.401Z,19.92
2022-12-03T06:16:50.186Z,18.25
2022-12-03T06:19:17.087Z,18.45
2022-12-03T06:21:43.892Z,17.17
2022-12-03T06:24:11.370Z,18.70
2022-12-03T06:26:39.364Z,19.48
2022-12-03T06:29:06.212Z,19.85
2022-12-03T06:31:34.206Z,20.00
2022-12-03T06:34:01.188Z,19.65
2022-12-03T06:36:28.593Z,18.48
2022-12-03T06:38:55.611Z,18.40
2022-12-03T06:41:22.420Z,18.73
2022-12-03T06:43:49.222Z,23.45
2022-12-03T06:46:16.189Z,21.48
2022-12-03T06:48:43.108Z,18.00
2022-12-03T06:51:10.004Z,21.63
2022-12-03T06:53:37.082Z,19.83
2022-12-03T06:56:04.128Z,18.65
2022-12-03T06:58:31.073Z,20.40
2022-12-03T07:00:58.084Z,18.02
2022-12-03T07:03:25.031Z,18.95
2022-12-03T07:05:51.912Z,18.88
2022-12-03T07:08:19.004Z,18.85
2022-12-03T07:10:45.891Z,16.70
2022-12-03T07:13:12.720Z,17.92
2022-12-03T07:15:39.969Z,17.35
2022-12-03T07:18:06.944Z,18.38
2022-12-03T07:20:33.883Z,17.83
2022-12-03T07:23:00.724Z,21.13
2022-12-03T07:25:27.553Z,18.85
2022-12-03T07:27:55.741Z,20.85
2022-12-03T07:30:24.299Z,20.58
2022-12-03T07:32:51.525Z,20.95
2022-12-03T07:35:18.336Z,18.67
2022-12-03T07:37:45.584Z,16.77
2022-12-03T07:40:13.154Z,15.90
2022-12-03T07:42:39.959Z,18.23
2022-12-03T07:45:07.558Z,18.83
2022-12-03T07:47:34.496Z,16.73
2022-12-03T07:50:01.446Z,17.42
2022-12-03T07:52:28.354Z,18.23
2022-12-03T07:54:55.429Z,16.75
2022-12-03T07:57:22.408Z,18.35
2022-12-03T07:59:50.520Z,16.45
2022-12-03T08:02:21.151Z,18.48
2022-12-03T08:04:48.658Z,18.50
2022-12-03T08:07:15.485Z,19.98
2022-12-03T08:09:42.971Z,19.27
2022-12-03T08:12:25.448Z,21.60
2022-12-03T08:14:52.988Z,17.35
2022-12-03T08:17:21.719Z,21.70
2022-12-03T08:19:49.703Z,21.45
2022-12-03T08:22:16.745Z,19.15
2022-12-03T08:24:44.066Z,19.25
2022-12-03T08:27:19.607Z,21.42
2022-12-03T08:29:47.004Z,25.17
2022-12-03T08:32:14.000Z,20.65
2022-12-03T08:34:43.523Z,22.30
2022-12-03T08:37:19.950Z,23.23
2022-12-03T08:39:49.481Z,23.42
2022-12-03T08:42:40.382Z,20.67
2022-12-03T08:45:30.429Z,22.85
2022-12-03T08:47:59.181Z,36.30
2022-12-03T08:50:28.804Z,30.85
2022-12-03T08:53:08.599Z,27.58
2022-12-03T08:55:38.302Z,34.30
2022-12-03T08:58:21.294Z,25.90
2022-12-03T09:00:56.877Z,29.60
2022-12-03T09:03:24.673Z,28.05
2022-12-03T09:05:51.778Z,24.88
2022-12-03T09:08:18.719Z,25.75
2022-12-03T09:10:45.611Z,26.98
2022-12-03T09:13:13.472Z,24.30
2022-12-03T09:15:40.293Z,25.30
2022-12-03T09:18:07.249Z,24.05
2022-12-03T09:20:34.102Z,24.63
2022-12-03T09:23:00.967Z,30.38
2022-12-03T09:25:27.960Z,24.98
2022-12-03T09:27:55.125Z,25.17
2022-12-03T09:30:22.154Z,25.77
2022-12-03T09:32:49.299Z,24.75
2022-12-03T09:35:16.388Z,23.70
2022-12-03T09:37:43.436Z,27.50
2022-12-03T09:40:11.630Z,28.92
2022-12-03T09:42:38.832Z,24.42
2022-12-03T09:45:12.949Z,26.48
2022-12-03T09:47:45.018Z,25.95
2022-12-03T09:50:15.036Z,22.63
2022-12-03T09:52:41.930Z,23.30
2022-12-03T09:55:21.520Z,25.27
2022-12-03T09:57:48.521Z,28.52
2022-12-03T10:00:18.845Z,24.65
2022-12-03T10:02:46.883Z,22.83
2022-12-03T10:05:14.950Z,24.77
2022-12-03T10:07:42.444Z,21.50
2022-12-03T10:10:22.258Z,26.05
2022-12-03T10:12:50.503Z,23.50
2022-12-03T10:15:19.758Z,24.60
2022-12-03T10:17:47.989Z,23.35
2022-12-03T10:20:20.355Z,23.85
2022-12-03T10:22:48.887Z,24.10
2022-12-03T10:25:19.822Z,25.13
2022-12-03T10:27:59.123Z,22.40
2022-12-03T10:30:28.748Z,27.60
2022-12-03T10:32:58.204Z,21.30
2022-12-03T10:35:36.931Z,19.88
2022-12-03T10:38:19.503Z,22.95
2022-12-03T10:40:46.707Z,20.33
2022-12-03T10:43:19.625Z,22.30
2022-12-03T10:45:48.886Z,21.77
2022-12-03T10:48:19.606Z,22.00
2022-12-03T10:51:04.303Z,20.80
2022-12-03T10:53:33.236Z,20.38
2022-12-03T10:56:03.736Z,22.13
2022-12-03T10:58:39.061Z,20.73
2022-12-03T11:01:19.875Z,22.83
2022-12-03T11:03:47.898Z,21.70
2022-12-03T11:06:20.114Z,22.45
2022-12-03T11:08:56.832Z,21.15
2022-12-03T11:11:30.676Z,19.75
2022-12-03T11:14:02.826Z,22.30
2022-12-03T11:16:41.652Z,21.10
2022-12-03T11:19:18.587Z,22.08
2022-12-03T11:22:04.768Z,19.10
2022-12-03T11:24:38.098Z,21.48
2022-12-03T11:27:06.831Z,21.13
2022-12-03T11:29:49.952Z,19.23
2022-12-03T11:32:42.473Z,22.42
2022-12-03T11:35:14.363Z,20.55
2022-12-03T11:37:41.278Z,23.15
2022-12-03T11:40:16.944Z,19.13
2022-12-03T11:42:45.858Z,18.67
2022-12-03T11:45:33.538Z,20.48
2022-12-03T11:48:02.187Z,21.20
2022-12-03T11:50:44.151Z,21.05
2022-12-03T11:53:11.054Z,19.25
2022-12-03T11:55:40.565Z,23.30
2022-12-03T11:58:25.641Z,22.40
2022-12-03T12:00:58.124Z,19.98
2022-12-03T12:03:36.361Z,21.95
2022-12-03T12:06:03.352Z,20.15
2022-12-03T12:08:31.050Z,22.40
2022-12-03T12:10:58.360Z,22.35
2022-12-03T12:13:36.068Z,25.05
2022-12-03T12:16:06.022Z,22.23
2022-12-03T12:18:45.825Z,21.30
2022-12-03T12:21:48.130Z,19.45
2022-12-03T12:24:36.377Z,21.23
2022-12-03T12:27:07.483Z,19.05
2022-12-03T12:29:36.891Z,23.38
2022-12-03T12:32:10.244Z,21.42
2022-12-03T12:34:41.742Z,21.42
2022-12-03T12:37:23.407Z,20.65
2022-12-03T12:39:54.062Z,20.40
2022-12-03T12:42:31.806Z,19.52
2022-12-03T12:45:14.766Z,19.92
2022-12-03T12:48:04.478Z,21.50
2022-12-03T12:50:33.228Z,21.17
2022-12-03T12:53:18.691Z,18.13
2022-12-03T12:55:45.622Z,20.67
2022-12-03T12:58:19.636Z,20.30
2022-12-03T13:00:51.227Z,20.27
2022-12-03T13:03:19.824Z,16.38
2022-12-03T13:05:48.498Z,20.00
2022-12-03T13:08:28.937Z,21.25
2022-12-03T13:10:58.778Z,18.95
2022-12-03T13:13:30.430Z,17.90
2022-12-03T13:16:02.456Z,17.63
2022-12-03T13:18:42.166Z,22.58
2022-12-03T13:21:32.841Z,28.17
2022-12-03T13:24:00.737Z,23.95
2022-12-03T13:26:40.368Z,20.88
2022-12-03T13:29:15.310Z,19.77
2022-12-03T13:31:54.220Z,19.50
2022-12-03T13:34:24.356Z,18.40
2022-12-03T13:36:57.442Z,18.27
2022-12-03T13:39:35.519Z,21.45
2022-12-03T13:42:40.636Z,20.25
2022-12-03T13:45:08.928Z,17.92
2022-12-03T13:47:36.473Z,20.83
2022-12-03T13:50:20.836Z,17.08
2022-12-03T13:52:47.974Z,20.08
2022-12-03T13:55:28.113Z,18.88
2022-12-03T13:57:55.478Z,20.98
2022-12-03T14:00:23.730Z,21.30
2022-12-03T14:02:50.665Z,21.75
2022-12-03T14:05:17.530Z,19.25
2022-12-03T14:07:44.518Z,19.38
2022-12-03T14:10:12.278Z,22.42
2022-12-03T14:12:39.472Z,19.20
2022-12-03T14:15:07.148Z,16.55
2022-12-03T14:17:34.020Z,21.30
2022-12-03T14:20:01.762Z,18.02
2022-12-03T14:22:29.238Z,23.60
2022-12-03T14:24:56.607Z,22.73
2022-12-03T14:27:24.795Z,19.83
2022-12-03T14:29:52.748Z,19.83
2022-12-03T14:32:23.047Z,19.70
2022-12-03T14:34:49.969Z,21.38
2022-12-03T14:37:17.128Z,22.00
2022-12-03T14:39:44.194Z,19.40
2022-12-03T14:42:13.973Z,20.13
2022-12-03T14:44:42.306Z,18.38
2022-12-03T14:47:09.732Z,19.35
2022-12-03T14:49:36.656Z,19.65
2022-12-03T14:52:03.963Z,16.70
2022-12-03T14:54:31.035Z,23.23
2022-12-03T14:56:57.890Z,22.30
2022-12-03T14:59:27.920Z,19.20
2022-12-03T15:01:55.557Z,20.67
2022-12-03T15:04:22.566Z,20.33
2022-12-03T15:06:49.681Z,20.20
2022-12-03T15:09:16.602Z,20.10
2022-12-03T15:11:46.401Z,19.73
2022-12-03T15:14:15.132Z,18.70
2022-12-03T15:16:42.167Z,18.05
2022-12-03T15:19:09.159Z,20.08
2022-12-03T15:21:36.222Z,26.08
2022-12-03T15:24:04.163Z,19.75
2022-12-03T15:26:31.180Z,20.50
2022-12-03T15:28:58.100Z,19.08
2022-12-03T15:31:24.955Z,21.08
2022-12-03T15:33:51.769Z,17.52
2022-12-03T15:36:18.711Z,19.73
2022-12-03T15:38:45.557Z,17.90
2022-12-03T15:41:21.734Z,21.35
2022-12-03T15:43:49.610Z,21.70
2022-12-03T15:46:19.734Z,19.20
2022-12-03T15:48:47.880Z,24.00
2022-12-03T15:51:15.149Z,21.65
2022-12-03T15:53:42.427Z,23.25
2022-12-03T15:56:09.691Z,18.55
2022-12-03T15:58:36.580Z,20.63
2022-12-03T16:01:03.816Z,21.67
2022-12-03T16:03:30.812Z,19.40
2022-12-03T16:05:57.730Z,18.48
2022-12-03T16:08:24.593Z,19.65
2022-12-03T16:10:51.450Z,18.08
2022-12-03T16:13:18.331Z,18.50
2022-12-03T16:15:45.336Z,19.60
2022-12-03T16:18:12.281Z,20.15
2022-12-03T16:20:39.346Z,21.55
2022-12-03T16:23:06.199Z,19.85
2022-12-03T16:25:33.090Z,18.13
2022-12-03T16:27:59.938Z,17.67
2022-12-03T16:30:26.868Z,20.25
2022-12-03T16:32:53.826Z,19.27
2022-12-03T16:35:21.083Z,21.55
2022-12-03T16:37:48.006Z,17.13
2022-12-03T16:40:15.006Z,19.95
2022-12-03T16:42:41.882Z,17.83
2022-12-03T16:45:09.522Z,18.90
2022-12-03T16:47:36.391Z,19.20
2022-12-03T16:50:05.296Z,26.52
2022-12-03T16:52:32.315Z,23.77
2022-12-03T16:54:59.150Z,23.38
2022-12-03T16:57:33.171Z,18.80
2022-12-03T17:00:00.888Z,24.27
2022-12-03T17:02:28.097Z,20.38
2022-12-03T17:04:55.125Z,18.42
2022-12-03T17:07:21.959Z,17.10
2022-12-03T17:09:49.234Z,19.88
2022-12-03T17:12:16.300Z,18.45
2022-12-03T17:14:43.249Z,18.90
2022-12-03T17:17:10.141Z,20.67
2022-12-03T17:19:37.055Z,21.60
2022-12-03T17:22:03.991Z,26.05
2022-12-03T17:24:30.861Z,20.77
2022-12-03T17:26:57.860Z,19.05
2022-12-03T17:29:24.929Z,20.25
2022-12-03T17:31:51.924Z,21.63
2022-12-03T17:34:18.857Z,20.88
2022-12-03T17:36:45.811Z,20.55
2022-12-03T17:39:12.738Z,23.25
2022-12-03T17:41:39.867Z,22.58
2022-12-03T17:44:10.712Z,25.85
2022-12-03T17:46:39.430Z,22.30
2022-12-03T17:49:06.464Z,24.92
2022-12-03T17:51:33.357Z,26.13
2022-12-03T17:54:00.857Z,25.85
2022-12-03T17:56:27.949Z,24.45
2022-12-03T17:58:57.143Z,23.70
2022-12-03T18:01:24.219Z,23.02
2022-12-03T18:03:51.227Z,25.08
2022-12-03T18:06:18.118Z,27.83
2022-12-03T18:08:45.022Z,28.33
2022-12-03T18:11:12.090Z,34.35
2022-12-03T18:13:40.219Z,29.83
2022-12-03T18:16:07.360Z,29.27
2022-12-03T18:18:34.278Z,26.58
2022-12-03T18:21:02.450Z,26.23
2022-12-03T18:23:29.406Z,28.52
2022-12-03T18:25:57.118Z,26.15
2022-12-03T18:28:24.280Z,24.67
2022-12-03T18:30:52.938Z,26.02
2022-12-03T18:33:21.547Z,26.65
2022-12-03T18:35:48.694Z,30.35
2022-12-03T18:38:17.340Z,29.55
2022-12-03T18:40:45.293Z,29.38
2022-12-03T18:43:16.957Z,29.73
2022-12-03T18:45:43.821Z,31.23
2022-12-03T18:48:16.552Z,30.63
2022-12-03T18:50:44.400Z,34.15
2022-12-03T18:53:17.522Z,31.60
2022-12-03T18:55:47.111Z,35.38
2022-12-03T18:58:14.060Z,30.60
2022-12-03T19:00:40.975Z,28.98
2022-12-03T19:03:07.968Z,28.35
2022-12-03T19:05:35.568Z,31.25
2022-12-03T19:08:03.541Z,29.85
2022-12-03T19:10:30.814Z,30.50
2022-12-03T19:12:57.710Z,31.20
2022-12-03T19:15:24.801Z,31.77
2022-12-03T19:17:51.838Z,34.47
2022-12-03T19:20:18.889Z,31.70
2022-12-03T19:22:46.305Z,34.78
2022-12-03T19:25:13.842Z,32.22
2022-12-03T19:27:40.869Z,36.90
2022-12-03T19:30:08.476Z,35.95
2022-12-03T19:32:35.545Z,33.33
2022-12-03T19:35:05.280Z,34.88
2022-12-03T19:37:33.806Z,33.72
2022-12-03T19:40:01.169Z,38.08
2022-12-03T19:42:28.197Z,37.17
2022-12-03T19:44:55.050Z,35.55
2022-12-03T19:47:24.733Z,35.50
2022-12-03T19:49:53.570Z,37.85
2022-12-03T19:52:20.767Z,36.78
2022-12-03T19:54:47.633Z,39.90
2022-12-03T19:57:19.392Z,33.08
2022-12-03T19:59:49.851Z,36.50
2022-12-03T20:02:16.905Z,36.45
2022-12-03T20:04:43.890Z,40.40
2022-12-03T20:07:10.759Z,36.63
2022-12-03T20:09:37.621Z,34.70
2022-12-03T20:12:04.877Z,36.50
2022-12-03T20:14:31.780Z,36.30
2022-12-03T20:16:58.680Z,33.85
2022-12-03T20:19:25.591Z,34.97
2022-12-03T20:21:53.733Z,39.03
2022-12-03T20:24:23.294Z,30.38
2022-12-03T20:26:50.077Z,35.90
2022-12-03T20:29:16.945Z,36.40
2022-12-03T20:31:44.337Z,37.55
2022-12-03T20:34:11.725Z,37.42
2022-12-03T20:36:39.363Z,34.25
2022-12-03T20:39:07.199Z,32.25
2022-12-03T20:41:37.526Z,35.80
2022-12-03T20:44:07.459Z,34.90
2022-12-03T20:46:34.804Z,36.85
2022-12-03T20:49:01.835Z,38.63
2022-12-03T20:51:30.668Z,39.22
2022-12-03T20:53:58.899Z,31.13
2022-12-03T20:56:31.607Z,37.13
2022-12-03T20:59:06.735Z,34.00
2022-12-03T21:01:36.024Z,35.42
2022-12-03T21:04:04.756Z,36.55
2022-12-03T21:06:34.015Z,37.28
2022-12-03T21:09:01.035Z,34.47
2022-12-03T21:11:30.818Z,35.22
2022-12-03T21:13:58.997Z,35.95
2022-12-03T21:17:06.451Z,33.80
2022-12-03T21:19:22.768Z,32.97
2022-12-03T21:21:49.821Z,33.78
2022-12-03T21:24:17.097Z,37.83
2022-12-03T21:26:43.911Z,33.85
2022-12-03T21:29:10.839Z,35.13
2022-12-03T21:31:39.765Z,37.22
2022-12-03T21:34:08.474Z,36.30
2022-12-03T21:36:35.277Z,31.35
2022-12-03T21:39:02.104Z,36.10
2022-12-03T21:41:29.155Z,32.03
2022-12-03T21:43:55.976Z,33.85
2022-12-03T21:47:10.569Z,33.72
2022-12-03T21:49:09.719Z,33.78
2022-12-03T21:51:36.609Z,32.75
2022-12-03T21:54:03.558Z,33.45
2022-12-03T21:56:31.985Z,34.13
2022-12-03T21:58:58.819Z,35.83
2022-12-03T22:01:26.086Z,32.25
2022-12-03T22:03:53.037Z,34.08
2022-12-03T22:06:20.487Z,34.67
2022-12-03T22:08:48.274Z,32.75
2022-12-03T22:11:21.540Z,30.90
2022-12-03T22:13:48.612Z,34.42
2022-12-03T22:16:18.009Z,34.20
2022-12-03T22:18:45.295Z,34.25
2022-12-03T22:21:15.512Z,34.47
2022-12-03T22:23:42.474Z,36.85
2022-12-03T22:26:12.832Z,35.08
2022-12-03T22:28:43.428Z,34.30
2022-12-03T22:31:11.281Z,37.20
2022-12-03T22:33:38.736Z,31.25
2022-12-03T22:36:08.149Z,40.70
2022-12-03T22:38:35.033Z,30.35
2022-12-03T22:41:06.194Z,32.75
2022-12-03T22:43:33.191Z,38.22
2022-12-03T22:46:00.097Z,35.75
2022-12-03T22:48:27.070Z,35.95
2022-12-03T22:50:53.926Z,34.35
2022-12-03T22:53:21.310Z,33.58
2022-12-03T22:55:56.462Z,32.35
2022-12-03T22:58:24.181Z,34.10
2022-12-03T23:00:51.729Z,37.22
2022-12-03T23:03:19.028Z,33.30
2022-12-03T23:05:45.960Z,35.65
2022-12-03T23:08:15.643Z,35.03
2022-12-03T23:10:44.835Z,33.83
2022-12-03T23:13:15.306Z,31.40
2022-12-03T23:15:50.400Z,35.58
2022-12-03T23:18:18.978Z,34.55
2022-12-03T23:20:51.997Z,30.42
2022-12-03T23:23:20.122Z,34.50
2022-12-03T23:26:04.677Z,34.08
2022-12-03T23:28:35.346Z,33.83
2022-12-03T23:31:03.444Z,29.77
2022-12-03T23:33:35.264Z,31.60
2022-12-03T23:36:06.276Z,35.90
2022-12-03T23:38:33.071Z,34.03
2022-12-03T23:41:08.220Z,31.98
2022-12-03T23:43:35.358Z,34.35
2022-12-03T23:46:11.764Z,32.17
2022-12-03T23:48:38.661Z,32.35
2022-12-03T23:51:12.993Z,34.53
2022-12-03T23:53:40.170Z,31.17
2022-12-03T23:56:11.880Z,31.63
2022-12-03T23:58:38.770Z,34.75
